Hamburg-Fuhlsbuettel, Germany (EDDH) 53-38N 010-00E 15M
Sep 23, 2019 - 01:20 PM EDT / 2019.09.23 1720 UTC
Wind: from the W (270 degrees) at 12 MPH (10 KT):0
Visibility: greater than 7 mile(s):0
Sky conditions: mostly cloudy
Temperature: 62 F (17 C)
Dew Point: 57 F (14 C)
Relative Humidity: 82%
Pressure (altimeter): 29.94 in. Hg (1014 hPa)
ob: EDDH 231720Z 27010KT 9999 SCT008 BKN012 17/14 Q1014 BECMG BKN008
cycle: 17